Time;durP1;ratioP1;P1;durP2;ratioP2;P2;SDS_P1;SDS_P2;PMS_P1;PMS_P2;Temp;Humidity;BMP_temperature;BMP_pressure;BME280_temperature;BME280_humidity;BME280_pressure;Samples;Min_cycle;Max_cycle;Signal;HPM_P1;HPM_P2
2021/05/20 00:02:15;;;;;;;10.63;7.97;;;;;;;13.25;76.46;99850.20;1650422;84;21019;-83
2021/05/20 00:04:42;;;;;;;12.25;8.10;;;;;;;13.25;76.73;99849.36;1669241;84;21491;-83
2021/05/20 00:07:11;;;;;;;14.43;8.15;;;;;;;13.38;76.30;99854.09;1671832;84;21244;-82
2021/05/20 00:09:37;;;;;;;12.05;8.30;;;;;;;13.32;76.31;99848.16;1668857;84;21618;-82
2021/05/20 00:12:04;;;;;;;12.73;8.35;;;;;;;13.27;76.44;99856.14;1671478;84;20948;-82
2021/05/20 00:14:30;;;;;;;11.18;7.53;;;;;;;13.36;76.44;99854.76;1672060;84;21134;-81
2021/05/20 00:16:56;;;;;;;13.83;7.50;;;;;;;13.36;76.16;99848.13;1669038;84;21209;-81
2021/05/20 00:19:22;;;;;;;12.07;8.28;;;;;;;13.43;75.53;99853.03;1668545;84;21008;-84
2021/05/20 00:21:49;;;;;;;10.20;6.85;;;;;;;13.37;75.67;99853.25;1670986;84;21174;-81
2021/05/20 00:24:14;;;;;;;11.85;7.80;;;;;;;13.28;75.95;99849.84;1669027;84;21670;-82
2021/05/20 00:26:41;;;;;;;9.90;7.37;;;;;;;13.25;75.96;99855.52;1646232;84;20978;-83
2021/05/20 00:29:07;;;;;;;11.28;7.60;;;;;;;13.36;75.74;99846.32;1668653;84;21013;-81
2021/05/20 00:31:33;;;;;;;11.18;7.83;;;;;;;13.24;75.92;99853.86;1669789;84;20968;-82
2021/05/20 00:33:58;;;;;;;12.58;8.10;;;;;;;13.16;76.30;99858.40;1670426;84;20869;-84
2021/05/20 00:36:29;;;;;;;11.08;7.72;;;;;;;13.17;76.21;99856.08;1643633;84;21000;-84
2021/05/20 00:38:57;;;;;;;11.73;7.35;;;;;;;13.09;76.43;99852.48;1667757;84;21168;-83
2021/05/20 00:41:25;;;;;;;13.28;7.80;;;;;;;13.09;76.36;99862.28;1647411;84;21150;-84
2021/05/20 00:43:54;;;;;;;11.97;8.05;;;;;;;12.96;76.91;99865.55;1670540;84;22270;-82
2021/05/20 00:46:20;;;;;;;11.68;7.83;;;;;;;12.98;76.86;99862.20;1667736;84;21152;-82
2021/05/20 00:48:48;;;;;;;11.70;7.65;;;;;;;13.00;76.85;99859.38;1657864;84;21041;-82
2021/05/20 00:51:16;;;;;;;12.47;7.83;;;;;;;12.86;77.06;99857.01;1662626;84;21132;-83
2021/05/20 00:53:41;;;;;;;;;;;;;;;12.81;77.22;99864.17;1663567;84;21167;-83
2021/05/20 00:56:08;;;;;;;12.63;8.07;;;;;;;12.72;77.73;99863.91;1661979;84;20505;-82
2021/05/20 00:58:35;;;;;;;13.15;8.15;;;;;;;12.75;77.38;99856.92;1662522;84;21154;-83
2021/05/20 01:01:01;;;;;;;11.60;7.70;;;;;;;12.65;77.74;99857.69;1662043;84;21084;-82
2021/05/20 01:03:30;;;;;;;12.88;8.68;;;;;;;12.62;77.97;99864.66;1633989;84;21700;-83
2021/05/20 01:05:55;;;;;;;;;;;;;;;12.45;78.46;99856.81;1661882;84;21008;-82
2021/05/20 01:08:25;;;;;;;14.38;8.20;;;;;;;12.47;78.74;99865.40;1659198;84;20264;-83
2021/05/20 01:10:53;;;;;;;12.93;8.45;;;;;;;12.39;78.93;99862.81;1661641;84;21112;-82
2021/05/20 01:13:21;;;;;;;13.32;8.68;;;;;;;12.40;78.93;99867.12;1661848;84;21056;-83
2021/05/20 01:15:49;;;;;;;11.97;8.48;;;;;;;12.41;79.30;99866.09;1661142;84;21237;-84
2021/05/20 01:18:18;;;;;;;12.47;8.58;;;;;;;12.50;78.97;99868.20;1634508;84;21008;-84
2021/05/20 01:20:48;;;;;;;12.65;8.50;;;;;;;12.55;78.57;99858.74;1661143;84;21040;-83
2021/05/20 01:23:24;;;;;;;12.50;8.28;;;;;;;12.60;78.40;99854.72;1661302;84;21060;-82
2021/05/20 01:25:54;;;;;;;12.47;8.93;;;;;;;12.62;78.42;99863.34;1660043;84;21080;-82
2021/05/20 01:28:28;;;;;;;13.85;8.85;;;;;;;12.54;78.44;99859.73;1632347;84;21859;-81
2021/05/20 01:30:55;;;;;;;12.65;8.90;;;;;;;12.57;78.45;99866.00;1660555;84;21100;-81
2021/05/20 01:33:21;;;;;;;13.32;8.98;;;;;;;12.39;78.94;99859.66;1636409;86;21140;-82
2021/05/20 01:35:49;;;;;;;16.27;9.30;;;;;;;12.31;79.15;99865.01;1663013;84;21160;-82
2021/05/20 01:41:00;;;;;;;12.60;8.70;;;;;;;12.25;79.62;99868.86;1663500;84;20646;-83
2021/05/20 01:43:28;;;;;;;12.18;7.45;;;;;;;12.21;79.90;99867.88;1639213;86;21195;-82
2021/05/20 01:45:58;;;;;;;12.88;8.55;;;;;;;12.24;79.79;99867.20;1661825;84;21131;-83
2021/05/20 01:48:32;;;;;;;14.53;8.83;;;;;;;12.09;80.44;99864.45;1642543;84;21124;-83
2021/05/20 01:51:14;;;;;;;16.07;9.88;;;;;;;11.97;81.03;99866.17;1639392;85;21073;-82
2021/05/20 01:53:45;;;;;;;16.95;9.43;;;;;;;12.06;80.52;99869.61;1645057;85;21009;-83
2021/05/20 01:56:14;;;;;;;14.87;9.13;;;;;;;12.00;80.88;99874.27;1645526;85;21167;-83
2021/05/20 01:58:40;;;;;;;14.50;9.70;;;;;;;11.98;81.01;99873.63;1643117;85;21100;-82
2021/05/20 02:01:11;;;;;;;14.10;9.95;;;;;;;12.00;80.84;99874.27;1644335;85;21107;-84
2021/05/20 02:03:41;;;;;;;11.73;9.05;;;;;;;11.98;80.85;99871.80;1645496;85;21092;-85
2021/05/20 02:06:08;;;;;;;13.80;10.00;;;;;;;12.07;80.69;99875.72;1647393;85;21001;-83
2021/05/20 02:08:36;;;;;;;13.72;9.73;;;;;;;12.06;80.93;99872.26;1642921;85;21076;-81
2021/05/20 02:11:04;;;;;;;;;;;;;;;12.09;80.46;99875.04;1606696;86;21120;-82
2021/05/20 02:13:29;;;;;;;14.83;9.85;;;;;;;12.11;80.51;99875.20;1642121;85;20577;-81
2021/05/20 02:15:55;;;;;;;13.48;9.93;;;;;;;12.15;80.12;99881.81;1627351;86;21112;-85
2021/05/20 02:18:21;;;;;;;14.75;10.43;;;;;;;12.15;80.12;99883.14;1629245;86;21973;-82
2021/05/20 02:20:49;;;;;;;15.30;10.10;;;;;;;12.15;80.13;99884.45;1642406;85;20986;-81
2021/05/20 02:23:16;;;;;;;16.75;10.32;;;;;;;12.14;79.95;99884.13;1644622;86;21025;-83
2021/05/20 02:25:44;;;;;;;17.02;10.93;;;;;;;12.01;80.83;99881.23;1645174;85;21145;-82
2021/05/20 02:28:10;;;;;;;;;;;;;;;11.99;80.96;99885.84;1651449;85;21131;-83
2021/05/20 02:30:35;;;;;;;12.65;9.43;;;;;;;12.06;80.90;99889.46;1645803;85;20941;-84
2021/05/20 02:33:02;;;;;;;16.77;10.70;;;;;;;12.12;80.63;99880.84;1645174;85;20926;-82
2021/05/20 02:35:28;;;;;;;14.98;10.40;;;;;;;11.92;80.82;99881.75;1645878;85;21091;-82
2021/05/20 02:37:54;;;;;;;16.20;10.55;;;;;;;12.03;80.69;99881.87;1627334;86;21032;-82
2021/05/20 02:40:21;;;;;;;18.48;11.05;;;;;;;12.04;80.28;99886.14;1640454;85;21019;-82
2021/05/20 02:42:47;;;;;;;15.95;10.35;;;;;;;12.15;80.12;99883.14;1620630;86;21158;-84
2021/05/20 02:45:18;;;;;;;15.05;10.53;;;;;;;12.10;79.61;99864.28;1645570;85;26958;-84
2021/05/20 02:47:43;;;;;;;15.48;10.30;;;;;;;11.85;80.78;99888.67;1654627;84;21116;-83
2021/05/20 02:50:13;;;;;;;20.02;10.88;;;;;;;12.04;80.26;99884.81;1658977;84;21613;-82
2021/05/20 02:52:38;;;;;;;14.18;10.38;;;;;;;11.96;80.35;99888.83;1635134;84;21080;-85
2021/05/20 02:55:07;;;;;;;14.75;10.18;;;;;;;12.04;80.05;99879.52;1635491;86;22489;-83
2021/05/20 02:57:35;;;;;;;16.45;10.58;;;;;;;11.97;80.19;99879.91;1637271;85;21714;-83
2021/05/20 03:00:01;;;;;;;14.70;10.53;;;;;;;12.07;79.74;99880.50;1663963;84;21169;-83
2021/05/20 03:02:30;;;;;;;14.55;10.32;;;;;;;12.08;79.60;99876.88;1662214;84;21148;-83
2021/05/20 03:04:58;;;;;;;14.87;10.78;;;;;;;12.01;79.65;99879.91;1661148;84;21051;-83
2021/05/20 03:07:26;;;;;;;14.90;10.28;;;;;;;12.07;79.52;99884.98;1635718;83;21154;-83
2021/05/20 03:09:52;;;;;;;14.78;9.83;;;;;;;12.12;79.35;99886.61;1662286;84;21776;-84
2021/05/20 03:12:20;;;;;;;15.45;10.18;;;;;;;12.13;78.80;99885.11;1662161;84;21076;-82
2021/05/20 03:14:45;;;;;;;15.85;10.23;;;;;;;12.12;78.51;99890.58;1661528;84;21128;-83
2021/05/20 03:17:12;;;;;;;13.43;9.78;;;;;;;12.19;78.47;99897.66;1636257;86;20925;-84
2021/05/20 03:19:41;;;;;;;14.33;9.08;;;;;;;12.24;78.20;99895.00;1633675;86;21183;-84
2021/05/20 03:22:10;;;;;;;14.55;9.78;;;;;;;12.17;78.03;99893.05;1662237;84;21048;-82
2021/05/20 03:24:37;;;;;;;14.38;9.75;;;;;;;12.25;77.53;99896.66;1658949;84;21092;-83
2021/05/20 03:27:04;;;;;;;16.00;8.88;;;;;;;12.29;77.43;99899.27;1633957;86;21165;-82
2021/05/20 03:29:32;;;;;;;13.43;9.45;;;;;;;12.41;76.98;99896.55;1659014;85;21111;-83
2021/05/20 03:31:58;;;;;;;;;;;;;;;12.49;76.45;99892.55;1664690;84;21931;-82
2021/05/20 03:34:24;;;;;;;13.30;9.08;;;;;;;12.42;76.36;99899.53;1663401;84;20283;-84
2021/05/20 03:36:50;;;;;;;14.10;9.68;;;;;;;12.50;76.23;99899.48;1660815;84;21016;-84
2021/05/20 03:39:17;;;;;;;13.88;9.03;;;;;;;12.55;76.12;99902.45;1660368;84;20962;-84
2021/05/20 03:41:43;;;;;;;15.38;8.98;;;;;;;12.66;75.60;99899.05;1663104;84;21109;-83
2021/05/20 03:44:10;;;;;;;14.65;9.68;;;;;;;12.71;75.02;99896.72;1661630;84;21061;-82
2021/05/20 03:46:36;;;;;;;16.07;9.78;;;;;;;12.86;75.00;99898.09;1662272;84;21116;-83
2021/05/20 03:49:03;;;;;;;13.53;8.55;;;;;;;12.92;73.90;99894.73;1633699;86;21240;-81
2021/05/20 03:51:29;;;;;;;13.22;9.10;;;;;;;13.08;73.89;99897.73;1661832;84;21827;-83
2021/05/20 03:53:57;;;;;;;13.08;8.83;;;;;;;13.19;73.43;99896.00;1659635;84;21040;-84
2021/05/20 03:56:23;;;;;;;12.20;8.60;;;;;;;13.33;72.95;99898.84;1661718;84;21160;-84
2021/05/20 03:58:48;;;;;;;12.63;8.13;;;;;;;13.35;72.12;99895.05;1658765;84;20925;-83
2021/05/20 04:01:15;;;;;;;11.83;7.65;;;;;;;13.39;72.04;99902.14;1664930;84;21009;-84
2021/05/20 04:03:41;;;;;;;14.85;8.63;;;;;;;13.29;71.58;99905.84;1665531;84;21157;-83
2021/05/20 04:06:10;;;;;;;13.45;8.00;;;;;;;13.38;71.40;99913.77;1667500;83;21000;-84
2021/05/20 04:08:37;;;;;;;12.78;8.05;;;;;;;13.43;70.76;99905.57;1635662;86;21925;-83
2021/05/20 04:11:06;;;;;;;12.73;7.72;;;;;;;13.52;70.46;99906.33;1662156;84;21017;-83
2021/05/20 04:13:38;;;;;;;13.25;7.72;;;;;;;13.47;69.24;99908.70;1660904;84;21526;-83
2021/05/20 04:16:06;;;;;;;11.03;7.33;;;;;;;13.57;69.46;99908.44;1640349;84;21112;-82
2021/05/20 04:18:33;;;;;;;12.93;7.08;;;;;;;13.63;69.54;99913.02;1661874;84;21123;-83
2021/05/20 04:21:00;;;;;;;14.43;7.47;;;;;;;13.68;68.68;99916.45;1664686;83;21102;-82
2021/05/20 04:23:28;;;;;;;11.73;6.83;;;;;;;13.64;68.45;99920.80;1659810;84;21700;-82
2021/05/20 04:25:54;;;;;;;11.68;7.22;;;;;;;13.71;67.35;99923.53;1659488;84;20968;-81
2021/05/20 04:28:20;;;;;;;11.88;7.28;;;;;;;13.85;67.01;99920.57;1616332;86;21009;-83
2021/05/20 04:30:47;;;;;;;10.90;6.75;;;;;;;13.81;66.58;99926.75;1661643;84;20926;-81
2021/05/20 04:33:15;;;;;;;13.03;7.37;;;;;;;13.66;66.74;99920.61;1633035;86;21217;-82
2021/05/20 04:35:43;;;;;;;11.55;6.40;;;;;;;13.76;67.12;99921.66;1661096;84;21125;-83
2021/05/20 04:38:08;;;;;;;;;;;;;;;13.57;66.14;99925.17;1663403;84;21094;-80
2021/05/20 04:40:37;;;;;;;10.43;7.17;;;;;;;13.73;66.22;99932.64;1660196;84;21071;-82
2021/05/20 04:43:05;;;;;;;14.00;7.37;;;;;;;13.58;66.49;99928.16;1659824;84;21640;-82
2021/05/20 04:45:30;;;;;;;;;;;;;;;13.51;66.52;99936.50;1639229;84;21255;-83
2021/05/20 04:47:56;;;;;;;9.75;6.00;;;;;;;13.33;66.25;99943.94;1660694;84;20293;-84
2021/05/20 04:50:22;;;;;;;10.20;6.40;;;;;;;13.34;66.18;99945.63;1660749;84;20972;-85
2021/05/20 04:52:48;;;;;;;10.43;6.60;;;;;;;13.58;65.95;99936.11;1662564;84;20957;-84
2021/05/20 04:55:16;;;;;;;10.10;6.70;;;;;;;13.67;65.53;99936.02;1662508;84;21036;-83
2021/05/20 04:57:43;;;;;;;12.73;6.70;;;;;;;13.70;65.60;99939.64;1661737;84;21179;-83
2021/05/20 05:00:14;;;;;;;13.62;6.20;;;;;;;13.71;65.29;99930.69;1661475;84;21184;-84
2021/05/20 05:02:42;;;;;;;11.18;6.30;;;;;;;13.79;64.86;99932.73;1667726;84;20988;-84
2021/05/20 05:05:10;;;;;;;8.90;6.45;;;;;;;13.81;64.45;99933.88;1639291;84;23046;-84
2021/05/20 05:07:37;;;;;;;9.25;6.42;;;;;;;13.69;64.93;99935.33;1660749;84;21132;-86
2021/05/20 05:10:05;;;;;;;12.28;6.87;;;;;;;13.85;64.50;99940.48;1663451;84;21127;-82
2021/05/20 05:12:34;;;;;;;12.65;6.60;;;;;;;13.85;64.54;99941.80;1661763;84;21133;-83
2021/05/20 05:15:00;;;;;;;11.43;6.55;;;;;;;13.91;64.48;99937.09;1662013;84;21096;-86
2021/05/20 05:17:26;;;;;;;10.98;6.72;;;;;;;13.86;64.82;99935.98;1636838;84;20917;-84
2021/05/20 05:19:52;;;;;;;11.00;6.80;;;;;;;13.86;64.31;99942.13;1663916;84;21234;-85
2021/05/20 05:22:20;;;;;;;10.23;6.40;;;;;;;13.72;64.47;99945.09;1659345;84;21090;-85
2021/05/20 05:24:47;;;;;;;13.75;6.72;;;;;;;13.70;64.17;99952.39;1666779;84;21696;-84
2021/05/20 05:27:13;;;;;;;12.03;6.72;;;;;;;13.81;64.24;99952.45;1636755;84;20996;-83
2021/05/20 05:29:40;;;;;;;10.00;6.35;;;;;;;13.92;64.23;99945.38;1661933;84;20886;-82
2021/05/20 05:32:07;;;;;;;;;;;;;;;13.97;63.97;99952.28;1663676;84;21617;-83
2021/05/20 05:34:33;;;;;;;11.18;6.45;;;;;;;13.94;64.31;99950.00;1659518;84;21093;-77
2021/05/20 05:37:01;;;;;;;11.33;6.60;;;;;;;14.02;64.88;99945.61;1661064;84;20929;-80
2021/05/20 05:39:30;;;;;;;;;;;;;;;14.06;64.64;99950.86;1638384;86;22278;-79
2021/05/20 05:41:55;;;;;;;11.12;6.53;;;;;;;13.91;64.58;99954.34;1634475;86;20604;-88
2021/05/20 05:44:23;;;;;;;10.18;6.47;;;;;;;13.91;64.64;99952.20;1656001;84;21088;-85
2021/05/20 05:46:49;;;;;;;10.15;6.12;;;;;;;13.90;64.22;99946.05;1660505;84;21107;-83
2021/05/20 05:49:24;;;;;;;11.45;6.40;;;;;;;14.01;63.30;99952.73;1661782;84;21029;-83
2021/05/20 05:51:51;;;;;;;9.90;6.10;;;;;;;14.10;63.53;99956.13;1629640;86;21687;-83
2021/05/20 05:54:14;;;;;;;10.70;6.40;;;;;;;14.01;63.72;99963.36;1660418;84;21104;-83
2021/05/20 05:56:40;;;;;;;10.78;6.28;;;;;;;14.10;63.15;99950.30;1658966;84;21430;-82
2021/05/20 05:59:07;;;;;;;13.13;6.53;;;;;;;14.16;62.98;99956.72;1661434;84;21183;-86
2021/05/20 06:01:34;;;;;;;13.80;6.58;;;;;;;14.24;62.41;99962.44;1658943;84;21059;-83
2021/05/20 06:04:01;;;;;;;8.83;5.40;;;;;;;14.21;61.69;99973.44;1653862;84;28216;-83
2021/05/20 06:06:29;;;;;;;10.45;6.20;;;;;;;14.24;60.72;99972.55;1633412;86;21069;-82
2021/05/20 06:08:54;;;;;;;;;;;;;;;14.11;61.33;99966.57;1664673;84;21136;-86
2021/05/20 06:11:21;;;;;;;10.50;5.17;;;;;;;14.45;61.00;99965.64;1639324;84;21678;-83
2021/05/20 06:13:49;;;;;;;12.15;5.22;;;;;;;14.59;60.63;99966.14;1662183;84;21151;-83
2021/05/20 06:16:15;;;;;;;;;;;;;;;14.65;59.86;99969.41;1662780;84;21075;-83
2021/05/20 06:18:42;;;;;;;10.95;4.87;;;;;;;14.71;59.52;99967.34;1658919;84;20448;-85
2021/05/20 06:21:10;;;;;;;;;;;;;;;14.71;59.59;99970.00;1665145;84;21151;-83
2021/05/20 06:23:37;;;;;;;8.48;4.75;;;;;;;14.54;58.81;99979.14;1660571;84;20572;-83
2021/05/20 06:26:03;;;;;;;;;;;;;;;14.60;59.03;99968.28;1662305;84;21049;-83
2021/05/20 06:28:36;;;;;;;7.03;4.42;;;;;;;14.67;58.51;99968.72;1663588;84;20199;-83
2021/05/20 06:31:01;;;;;;;10.70;4.53;;;;;;;14.75;58.83;99980.25;1663853;84;20974;-83
2021/05/20 06:33:28;;;;;;;7.45;4.10;;;;;;;14.65;58.75;99981.38;1663056;84;20902;-82
2021/05/20 06:35:54;;;;;;;8.38;3.62;;;;;;;14.79;57.94;99981.02;1663083;84;21096;-80
2021/05/20 06:38:23;;;;;;;5.90;3.77;;;;;;;14.71;57.35;99979.78;1663558;84;20940;-82
2021/05/20 06:40:49;;;;;;;5.20;3.40;;;;;;;14.84;57.34;99971.16;1633026;84;21676;-81
2021/05/20 06:43:16;;;;;;;6.25;3.60;;;;;;;14.76;56.97;99977.89;1660800;84;22429;-79
2021/05/20 06:45:42;;;;;;;6.53;3.08;;;;;;;15.12;56.93;99969.05;1662130;84;21709;-81
2021/05/20 06:48:10;;;;;;;5.53;3.30;;;;;;;15.05;56.65;99975.12;1657149;84;21739;-81
2021/05/20 06:50:35;;;;;;;6.10;3.17;;;;;;;15.20;56.42;99975.59;1640347;85;21071;-82
2021/05/20 06:53:03;;;;;;;6.80;2.90;;;;;;;15.29;56.38;99967.80;1643838;85;21031;-81
2021/05/20 06:55:31;;;;;;;5.75;2.90;;;;;;;15.50;56.11;99974.91;1642780;85;20926;-81
2021/05/20 07:00:42;;;;;;;4.22;2.33;;;;;;;15.86;55.46;99966.49;1645465;85;20291;-81
2021/05/20 07:03:15;;;;;;;4.90;2.62;;;;;;;15.92;54.73;99963.05;1642690;85;21003;-80
2021/05/20 07:05:42;;;;;;;4.50;2.65;;;;;;;16.11;54.20;99959.69;1640876;86;21023;-81
2021/05/20 07:08:12;;;;;;;7.55;2.37;;;;;;;15.94;53.52;99963.66;1627551;85;22284;-83
2021/05/20 07:10:38;;;;;;;5.00;2.35;;;;;;;16.10;52.88;99978.02;1644209;85;22250;-82
2021/05/20 07:13:04;;;;;;;5.37;2.60;;;;;;;16.14;52.65;99972.61;1646083;85;22199;-84
2021/05/20 07:15:30;;;;;;;4.35;2.30;;;;;;;16.34;53.09;99974.53;1642978;85;21094;-83
2021/05/20 07:17:57;;;;;;;3.60;2.30;;;;;;;16.33;52.28;99954.25;1644056;85;21161;-83
2021/05/20 07:20:25;;;;;;;5.47;2.60;;;;;;;16.14;51.11;99991.26;1642146;85;21128;-83
2021/05/20 07:22:52;;;;;;;3.65;2.10;;;;;;;16.03;51.49;99982.47;1641883;85;22305;-83
2021/05/20 07:25:18;;;;;;;3.75;2.40;;;;;;;16.07;51.13;99968.27;1645603;85;21162;-84
2021/05/20 07:27:43;;;;;;;3.42;1.80;;;;;;;16.14;50.43;99965.95;1647460;85;20997;-85
2021/05/20 07:30:13;;;;;;;4.05;1.75;;;;;;;16.28;50.41;99975.32;1625755;86;20885;-83
2021/05/20 07:32:42;;;;;;;2.98;2.15;;;;;;;16.31;49.19;99980.26;1646862;85;21089;-83
2021/05/20 07:35:10;;;;;;;3.85;1.80;;;;;;;16.12;48.74;99977.30;1646988;85;21109;-84
2021/05/20 07:37:36;;;;;;;3.70;1.80;;;;;;;16.24;49.24;99970.09;1643071;85;22665;-83
2021/05/20 07:40:05;;;;;;;3.03;1.90;;;;;;;16.15;49.07;99975.56;1644116;85;21120;-83
2021/05/20 07:42:31;;;;;;;4.60;2.05;;;;;;;16.23;49.23;99969.77;1639909;85;21110;-84
2021/05/20 07:44:59;;;;;;;2.00;1.55;;;;;;;16.35;49.37;99966.05;1648718;85;21136;-84
2021/05/20 07:47:26;;;;;;;3.22;1.87;;;;;;;16.50;48.65;99971.53;1643347;85;22286;-83
2021/05/20 07:49:52;;;;;;;4.30;1.85;;;;;;;16.56;48.83;99977.08;1640125;85;21139;-84
2021/05/20 07:52:19;;;;;;;3.72;1.60;;;;;;;16.58;47.84;100001.69;1644087;85;21005;-85
2021/05/20 07:54:45;;;;;;;3.20;1.52;;;;;;;16.43;47.50;99984.00;1639583;85;22129;-86
2021/05/20 07:57:11;;;;;;;2.85;1.55;;;;;;;16.39;47.83;99985.44;1647990;85;20934;-83
2021/05/20 07:59:39;;;;;;;3.37;1.62;;;;;;;16.51;47.04;99970.52;1625806;86;21097;-80
2021/05/20 08:02:20;;;;;;;2.52;1.77;;;;;;;16.46;47.06;99986.27;1644367;83;21571;-87
2021/05/20 08:04:43;;;;;;;3.27;1.30;;;;;;;16.60;46.03;99983.67;1645221;85;21042;-87
2021/05/20 08:12:29;;;;;;;2.95;1.40;;;;;;;16.57;46.21;99979.55;1592463;85;22428;-90
2021/05/20 08:14:58;;;;;;;2.95;1.32;;;;;;;16.59;45.40;99968.69;1653649;85;21122;-88
2021/05/20 08:17:25;;;;;;;2.30;1.40;;;;;;;16.70;44.32;99982.77;1649417;85;21024;-87
2021/05/20 08:19:51;;;;;;;3.47;1.30;;;;;;;16.77;45.17;99962.28;1648091;85;21036;-87
2021/05/20 08:22:18;;;;;;;4.67;1.67;;;;;;;17.02;45.42;99963.08;1650081;83;20966;-86
2021/05/20 08:24:44;;;;;;;3.52;1.77;;;;;;;16.88;46.53;99962.75;1646721;85;21217;-87
2021/05/20 08:27:11;;;;;;;3.35;1.50;;;;;;;16.80;46.48;99960.55;1649556;85;20918;-87
2021/05/20 08:29:38;;;;;;;4.22;1.57;;;;;;;16.56;46.09;99974.41;1649638;84;21024;-86
2021/05/20 08:32:08;;;;;;;2.50;1.42;;;;;;;16.83;45.90;99954.00;1652825;85;21610;-86
2021/05/20 08:34:39;;;;;;;2.40;1.40;;;;;;;16.91;45.57;99955.69;1631467;85;22634;-88
2021/05/20 08:37:05;;;;;;;3.17;1.50;;;;;;;16.94;44.51;99973.95;1653784;84;20997;-89
2021/05/20 08:39:32;;;;;;;3.65;1.50;;;;;;;16.77;45.02;99971.61;1648350;84;20999;-87
2021/05/20 08:41:59;;;;;;;4.05;1.57;;;;;;;16.89;44.70;99957.71;1608914;85;27032;-87
2021/05/20 08:44:28;;;;;;;2.40;1.32;;;;;;;16.99;44.85;99971.48;1650779;85;21017;-87
2021/05/20 08:46:56;;;;;;;2.33;1.40;;;;;;;17.31;44.98;99958.38;1653968;85;21078;-86
2021/05/20 08:49:25;;;;;;;3.10;1.50;;;;;;;17.08;44.18;99956.94;1656677;84;20994;-87
2021/05/20 08:51:52;;;;;;;2.40;1.40;;;;;;;17.28;43.04;99958.28;1678209;83;21038;-88
2021/05/20 08:54:23;;;;;;;3.15;1.50;;;;;;;17.05;44.46;99957.34;1677625;84;21012;-86
2021/05/20 08:56:55;;;;;;;2.87;1.60;;;;;;;17.38;44.39;99982.70;1631406;85;21035;-89
2021/05/20 08:59:22;;;;;;;1.85;1.22;;;;;;;17.38;43.40;99964.54;1674209;84;21626;-88
2021/05/20 09:01:54;;;;;;;2.22;1.30;;;;;;;17.20;41.14;99973.98;1672257;84;21179;-89
2021/05/20 09:04:24;;;;;;;3.85;1.60;;;;;;;17.28;42.82;99980.16;1669133;84;21198;-88
2021/05/20 09:06:55;;;;;;;4.80;1.60;;;;;;;17.09;43.58;99951.92;1646362;84;21642;-89
2021/05/20 09:09:28;;;;;;;3.30;1.60;;;;;;;17.35;43.59;99970.28;1671767;84;21008;-88
2021/05/20 09:12:00;;;;;;;2.85;1.47;;;;;;;17.34;44.33;99957.47;1672768;84;39285;-88
2021/05/20 09:14:42;;;;;;;2.45;1.37;;;;;;;17.33;43.81;99965.16;1652158;84;21036;-86
2021/05/20 09:17:19;;;;;;;3.75;1.70;;;;;;;17.58;44.17;99947.98;1648162;84;21168;-86
2021/05/20 09:19:52;;;;;;;;;;;;;;;17.30;43.90;99962.89;1669733;84;21598;-87
2021/05/20 09:22:21;;;;;;;2.90;1.62;;;;;;;17.27;43.62;99967.83;1672458;84;20199;-87
2021/05/20 09:24:58;;;;;;;3.12;1.90;;;;;;;17.52;44.16;99960.83;1670241;84;21100;-87
2021/05/20 09:27:43;;;;;;;5.17;1.60;;;;;;;17.55;43.84;99961.75;1673281;84;21195;-87
2021/05/20 09:30:18;;;;;;;2.72;1.70;;;;;;;17.74;44.46;99961.45;1673073;84;21752;-83
2021/05/20 09:32:59;;;;;;;3.12;1.60;;;;;;;17.53;44.97;99961.15;1656230;84;21075;-87
2021/05/20 09:35:28;;;;;;;6.58;1.95;;;;;;;17.45;44.15;99989.39;1666862;84;21724;-84
2021/05/20 09:38:11;;;;;;;2.85;1.70;;;;;;;17.36;44.28;99968.75;1672027;84;21177;-84
2021/05/20 09:40:40;;;;;;;2.47;1.67;;;;;;;17.43;44.84;99965.26;1646527;85;21254;-88
2021/05/20 09:43:21;;;;;;;3.72;1.70;;;;;;;17.42;44.74;99952.44;1673210;84;21154;-85
2021/05/20 09:45:51;;;;;;;5.85;1.70;;;;;;;17.57;44.38;99953.05;1644788;85;21088;-84
2021/05/20 09:48:17;;;;;;;4.28;1.80;;;;;;;17.51;44.12;99953.03;1644891;85;21083;-82
2021/05/20 09:50:48;;;;;;;3.47;1.90;;;;;;;17.31;44.97;99963.22;1665127;84;21116;-83
2021/05/20 09:53:19;;;;;;;3.67;1.70;;;;;;;17.38;43.86;99964.02;1631228;86;21198;-82
2021/05/20 09:55:56;;;;;;;3.67;1.60;;;;;;;17.52;44.53;99952.82;1662339;84;21040;-81
2021/05/20 09:58:26;;;;;;;2.58;1.45;;;;;;;17.72;44.22;99958.67;1635407;86;21128;-83
2021/05/20 10:00:56;;;;;;;1.67;1.27;;;;;;;17.43;42.71;99958.06;1659720;84;21122;-82
2021/05/20 10:03:26;;;;;;;4.65;1.55;;;;;;;17.66;43.02;99964.84;1664641;84;21100;-83
2021/05/20 10:06:00;;;;;;;5.60;1.52;;;;;;;17.82;43.55;99947.05;1662160;85;21110;-82
2021/05/20 10:08:29;;;;;;;1.65;1.22;;;;;;;17.81;43.12;99952.08;1658530;84;22089;-83
2021/05/20 10:11:01;;;;;;;1.57;1.30;;;;;;;17.86;41.86;99947.45;1632368;86;21620;-86
2021/05/20 10:13:28;;;;;;;2.85;1.30;;;;;;;17.93;42.20;99946.44;1635739;86;21024;-85
2021/05/20 10:15:56;;;;;;;2.85;1.50;;;;;;;18.04;42.14;99944.16;1662686;84;22183;-86
2021/05/20 10:18:24;;;;;;;4.97;1.60;;;;;;;17.70;41.91;99956.73;1661389;84;21399;-85
2021/05/20 10:20:55;;;;;;;2.00;1.45;;;;;;;17.55;42.02;99992.45;1666431;84;21862;-86
2021/05/20 10:23:22;;;;;;;1.80;1.30;;;;;;;17.62;41.52;99965.77;1659116;84;21056;-89
2021/05/20 10:25:53;;;;;;;3.33;1.30;;;;;;;17.86;41.76;99950.92;1665142;84;27179;-90
2021/05/20 10:28:20;;;;;;;2.10;1.20;;;;;;;17.91;42.06;99944.98;1666833;84;21059;-90
2021/05/20 10:30:49;;;;;;;3.37;1.37;;;;;;;17.66;42.13;99954.16;1669423;83;27439;-91
2021/05/20 10:33:20;;;;;;;2.65;1.40;;;;;;;17.87;42.17;99944.56;1668095;83;21127;-84
2021/05/20 10:35:53;;;;;;;3.10;1.55;;;;;;;18.25;42.49;99950.53;1662272;84;21145;-85
2021/05/20 10:38:34;;;;;;;3.27;1.32;;;;;;;18.01;42.41;99957.41;1657391;84;21071;-89
2021/05/20 10:41:19;;;;;;;3.85;1.37;;;;;;;18.18;41.87;99959.11;1664750;84;21250;-86
2021/05/20 10:43:50;;;;;;;4.47;1.37;;;;;;;18.34;41.58;99951.12;1660545;84;21771;-87
2021/05/20 10:46:17;;;;;;;4.78;1.35;;;;;;;18.30;41.55;99954.75;1658072;84;21100;-92
2021/05/20 10:48:53;;;;;;;;;;;;;;;18.24;41.43;99974.30;1665364;84;21120;-83
2021/05/20 10:51:30;;;;;;;3.05;1.50;;;;;;;18.04;40.87;99974.88;1670966;84;20319;-84
2021/05/20 10:54:09;;;;;;;2.75;1.40;;;;;;;18.30;40.90;99961.43;1671334;84;28462;-83
2021/05/20 10:56:46;;;;;;;5.50;1.60;;;;;;;18.54;41.35;99956.91;1672973;84;21028;-92
2021/05/20 10:59:36;;;;;;;4.10;1.50;;;;;;;18.40;41.33;99961.49;1671899;84;21976;-85
2021/05/20 11:02:03;;;;;;;3.55;1.20;;;;;;;18.72;41.32;99949.00;1664638;84;21100;-84
2021/05/20 11:04:42;;;;;;;2.90;1.40;;;;;;;18.72;40.02;99946.81;1670204;85;21634;-88
2021/05/20 11:07:05;;;;;;;2.87;1.30;;;;;;;18.36;39.10;99962.94;1672287;84;21133;-87
2021/05/20 11:09:43;;;;;;;2.73;1.57;;;;;;;18.56;39.53;99953.50;1677044;84;21109;-83
2021/05/20 11:12:13;;;;;;;2.40;1.50;;;;;;;18.58;40.90;99966.97;1645936;85;21088;-83
2021/05/20 11:14:39;;;;;;;2.17;1.37;;;;;;;18.69;41.46;99970.83;1646840;84;21091;-84
2021/05/20 11:17:27;;;;;;;2.92;1.70;;;;;;;18.69;40.90;99967.31;1626200;84;21112;-84
2021/05/20 11:20:27;;;;;;;2.22;1.00;;;;;;;18.39;39.67;99997.27;1642105;84;21074;-85
2021/05/20 11:23:21;;;;;;;2.92;1.40;;;;;;;18.48;39.31;99985.31;1674836;84;21155;-85
2021/05/20 11:25:49;;;;;;;1.82;1.22;;;;;;;18.34;40.00;99967.69;1674951;84;22103;-83
2021/05/20 11:28:17;;;;;;;3.15;1.50;;;;;;;18.36;40.28;99966.95;1677371;84;21091;-85
2021/05/20 11:30:43;;;;;;;2.22;1.40;;;;;;;18.13;40.92;99960.23;1674103;84;21063;-84
2021/05/20 11:33:17;;;;;;;2.37;1.40;;;;;;;18.21;40.03;99956.02;1644592;85;20937;-84
2021/05/20 11:38:28;;;;;;;2.25;1.30;;;;;;;18.50;40.84;99960.50;1664701;84;21052;-84
2021/05/20 11:40:54;;;;;;;4.70;1.40;;;;;;;18.55;39.65;99970.06;1666699;84;21088;-83
2021/05/20 11:43:32;;;;;;;2.17;1.20;;;;;;;18.57;39.87;99965.84;1670245;84;20905;-88
2021/05/20 11:46:02;;;;;;;2.25;1.30;;;;;;;18.78;39.72;99949.97;1669362;84;21609;-88
2021/05/20 11:48:27;;;;;;;2.25;1.52;;;;;;;18.95;39.62;99969.85;1650183;84;21074;-86
2021/05/20 11:50:53;;;;;;;3.52;1.35;;;;;;;18.72;39.58;99960.19;1663440;84;21222;-87
2021/05/20 11:53:19;;;;;;;3.55;1.62;;;;;;;18.79;39.68;99962.33;1655286;85;20969;-86